sensor_id;sensor_type;location;lat;lon;timestamp;P1;durP1;ratioP1;P2;durP2;ratioP2
72404;SDS011;60395;52.020;113.548;2024-01-15T00:00:17;81.57;;;28.77;;
72404;SDS011;60395;52.020;113.548;2024-01-15T00:06:24;49.35;;;18.88;;
72404;SDS011;60395;52.020;113.548;2024-01-15T00:09:29;31.33;;;19.40;;
72404;SDS011;60395;52.020;113.548;2024-01-15T00:12:33;12.23;;;6.07;;
72404;SDS011;60395;52.020;113.548;2024-01-15T00:15:36;22.75;;;9.57;;
72404;SDS011;60395;52.020;113.548;2024-01-15T00:21:44;9.75;;;7.50;;
72404;SDS011;60395;52.020;113.548;2024-01-15T00:24:47;18.87;;;8.17;;
72404;SDS011;60395;52.020;113.548;2024-01-15T00:27:51;10.47;;;5.17;;
72404;SDS011;60395;52.020;113.548;2024-01-15T00:30:54;5.15;;;4.05;;
72404;SDS011;60395;52.020;113.548;2024-01-15T00:37:01;44.67;;;13.13;;
72404;SDS011;60395;52.020;113.548;2024-01-15T00:40:05;20.07;;;8.50;;
72404;SDS011;60395;52.020;113.548;2024-01-15T00:43:10;20.37;;;8.50;;
72404;SDS011;60395;52.020;113.548;2024-01-15T00:46:14;20.90;;;6.53;;
72404;SDS011;60395;52.020;113.548;2024-01-15T00:49:18;18.53;;;9.73;;
72404;SDS011;60395;52.020;113.548;2024-01-15T00:55:24;21.87;;;6.83;;
72404;SDS011;60395;52.020;113.548;2024-01-15T00:58:27;14.63;;;5.78;;
72404;SDS011;60395;52.020;113.548;2024-01-15T01:04:34;26.27;;;8.05;;
72404;SDS011;60395;52.020;113.548;2024-01-15T01:10:41;25.92;;;11.07;;
72404;SDS011;60395;52.020;113.548;2024-01-15T01:13:47;27.63;;;13.13;;
72404;SDS011;60395;52.020;113.548;2024-01-15T01:19:54;9.35;;;7.22;;
72404;SDS011;60395;52.020;113.548;2024-01-15T01:26:00;16.23;;;6.95;;
72404;SDS011;60395;52.020;113.548;2024-01-15T01:32:07;12.03;;;5.67;;
72404;SDS011;60395;52.020;113.548;2024-01-15T01:35:10;4.82;;;3.65;;
72404;SDS011;60395;52.020;113.548;2024-01-15T01:38:13;17.67;;;9.52;;
72404;SDS011;60395;52.020;113.548;2024-01-15T01:41:17;12.90;;;9.15;;
72404;SDS011;60395;52.020;113.548;2024-01-15T01:47:23;21.53;;;9.37;;
72404;SDS011;60395;52.020;113.548;2024-01-15T01:50:29;63.43;;;25.87;;
72404;SDS011;60395;52.020;113.548;2024-01-15T01:53:34;37.93;;;21.70;;
72404;SDS011;60395;52.020;113.548;2024-01-15T01:56:40;29.70;;;16.50;;
72404;SDS011;60395;52.020;113.548;2024-01-15T01:59:44;41.47;;;21.07;;
72404;SDS011;60395;52.020;113.548;2024-01-15T02:02:49;38.47;;;20.57;;
72404;SDS011;60395;52.020;113.548;2024-01-15T02:05:53;36.13;;;14.35;;
72404;SDS011;60395;52.020;113.548;2024-01-15T02:12:00;123.33;;;37.20;;
72404;SDS011;60395;52.020;113.548;2024-01-15T02:18:07;31.47;;;17.60;;
72404;SDS011;60395;52.020;113.548;2024-01-15T02:21:10;33.77;;;16.27;;
72404;SDS011;60395;52.020;113.548;2024-01-15T02:24:14;45.37;;;17.83;;
72404;SDS011;60395;52.020;113.548;2024-01-15T02:30:22;24.10;;;16.15;;
72404;SDS011;60395;52.020;113.548;2024-01-15T02:33:26;118.70;;;36.10;;
72404;SDS011;60395;52.020;113.548;2024-01-15T02:39:33;21.20;;;13.60;;
72404;SDS011;60395;52.020;113.548;2024-01-15T02:45:40;21.30;;;12.93;;
72404;SDS011;60395;52.020;113.548;2024-01-15T02:48:43;16.33;;;8.75;;
72404;SDS011;60395;52.020;113.548;2024-01-15T02:54:50;26.88;;;15.13;;
72404;SDS011;60395;52.020;113.548;2024-01-15T02:57:54;25.67;;;12.88;;
72404;SDS011;60395;52.020;113.548;2024-01-15T03:00:57;30.27;;;18.13;;
72404;SDS011;60395;52.020;113.548;2024-01-15T03:04:01;25.23;;;14.05;;
72404;SDS011;60395;52.020;113.548;2024-01-15T03:07:05;27.90;;;11.67;;
72404;SDS011;60395;52.020;113.548;2024-01-15T03:10:08;7.43;;;4.88;;
72404;SDS011;60395;52.020;113.548;2024-01-15T03:13:12;32.03;;;16.17;;
72404;SDS011;60395;52.020;113.548;2024-01-15T03:19:19;32.93;;;20.63;;
72404;SDS011;60395;52.020;113.548;2024-01-15T03:22:22;28.60;;;15.80;;
72404;SDS011;60395;52.020;113.548;2024-01-15T03:25:26;33.08;;;18.45;;
72404;SDS011;60395;52.020;113.548;2024-01-15T03:28:29;51.78;;;21.05;;
72404;SDS011;60395;52.020;113.548;2024-01-15T03:31:33;49.78;;;21.73;;
72404;SDS011;60395;52.020;113.548;2024-01-15T03:34:36;36.58;;;19.83;;
72404;SDS011;60395;52.020;113.548;2024-01-15T03:37:40;35.65;;;20.98;;
72404;SDS011;60395;52.020;113.548;2024-01-15T03:40:44;49.60;;;22.77;;
72404;SDS011;60395;52.020;113.548;2024-01-15T03:43:47;28.98;;;21.33;;
72404;SDS011;60395;52.020;113.548;2024-01-15T03:46:51;37.30;;;19.52;;
72404;SDS011;60395;52.020;113.548;2024-01-15T03:49:54;47.38;;;26.40;;
72404;SDS011;60395;52.020;113.548;2024-01-15T03:52:58;67.60;;;25.70;;
72404;SDS011;60395;52.020;113.548;2024-01-15T03:56:01;44.63;;;19.27;;
72404;SDS011;60395;52.020;113.548;2024-01-15T03:59:04;47.92;;;23.52;;
72404;SDS011;60395;52.020;113.548;2024-01-15T04:02:08;52.42;;;23.08;;
72404;SDS011;60395;52.020;113.548;2024-01-15T04:05:12;53.33;;;21.98;;
72404;SDS011;60395;52.020;113.548;2024-01-15T04:08:16;39.87;;;18.63;;
72404;SDS011;60395;52.020;113.548;2024-01-15T04:14:23;52.13;;;16.90;;
72404;SDS011;60395;52.020;113.548;2024-01-15T04:17:26;30.58;;;15.57;;
72404;SDS011;60395;52.020;113.548;2024-01-15T04:20:30;30.13;;;12.47;;
72404;SDS011;60395;52.020;113.548;2024-01-15T04:23:33;40.70;;;15.48;;
72404;SDS011;60395;52.020;113.548;2024-01-15T04:26:37;43.15;;;15.27;;
72404;SDS011;60395;52.020;113.548;2024-01-15T04:29:40;64.13;;;26.30;;
72404;SDS011;60395;52.020;113.548;2024-01-15T04:32:44;41.63;;;18.60;;
72404;SDS011;60395;52.020;113.548;2024-01-15T04:35:47;40.80;;;20.33;;
72404;SDS011;60395;52.020;113.548;2024-01-15T04:38:51;41.08;;;14.18;;
72404;SDS011;60395;52.020;113.548;2024-01-15T04:41:55;47.20;;;22.25;;
72404;SDS011;60395;52.020;113.548;2024-01-15T04:44:58;48.92;;;22.17;;
72404;SDS011;60395;52.020;113.548;2024-01-15T04:48:02;45.67;;;22.95;;
72404;SDS011;60395;52.020;113.548;2024-01-15T04:51:06;59.88;;;22.52;;
72404;SDS011;60395;52.020;113.548;2024-01-15T04:54:12;77.15;;;27.25;;
72404;SDS011;60395;52.020;113.548;2024-01-15T04:57:20;59.25;;;27.90;;
72404;SDS011;60395;52.020;113.548;2024-01-15T05:00:23;65.72;;;25.92;;
72404;SDS011;60395;52.020;113.548;2024-01-15T05:03:27;75.32;;;30.73;;
72404;SDS011;60395;52.020;113.548;2024-01-15T05:06:30;66.30;;;30.08;;
72404;SDS011;60395;52.020;113.548;2024-01-15T05:09:34;67.15;;;28.88;;
72404;SDS011;60395;52.020;113.548;2024-01-15T05:12:37;54.72;;;24.80;;
72404;SDS011;60395;52.020;113.548;2024-01-15T05:15:41;73.22;;;28.88;;
72404;SDS011;60395;52.020;113.548;2024-01-15T05:18:44;75.35;;;30.95;;
72404;SDS011;60395;52.020;113.548;2024-01-15T05:21:48;93.90;;;31.08;;
72404;SDS011;60395;52.020;113.548;2024-01-15T05:24:51;86.70;;;31.33;;
72404;SDS011;60395;52.020;113.548;2024-01-15T05:27:55;88.28;;;35.45;;
72404;SDS011;60395;52.020;113.548;2024-01-15T05:30:59;72.57;;;31.15;;
72404;SDS011;60395;52.020;113.548;2024-01-15T05:37:06;78.90;;;30.40;;
72404;SDS011;60395;52.020;113.548;2024-01-15T05:40:09;67.03;;;30.60;;
72404;SDS011;60395;52.020;113.548;2024-01-15T05:46:16;65.07;;;26.15;;
72404;SDS011;60395;52.020;113.548;2024-01-15T05:49:20;53.45;;;25.65;;
72404;SDS011;60395;52.020;113.548;2024-01-15T05:52:24;56.38;;;23.33;;
72404;SDS011;60395;52.020;113.548;2024-01-15T05:55:27;72.07;;;27.98;;
72404;SDS011;60395;52.020;113.548;2024-01-15T05:58:31;62.78;;;25.42;;
72404;SDS011;60395;52.020;113.548;2024-01-15T06:01:34;74.20;;;29.33;;
72404;SDS011;60395;52.020;113.548;2024-01-15T06:04:37;73.15;;;28.02;;
72404;SDS011;60395;52.020;113.548;2024-01-15T06:07:41;103.57;;;33.92;;
72404;SDS011;60395;52.020;113.548;2024-01-15T06:10:44;67.13;;;28.55;;
72404;SDS011;60395;52.020;113.548;2024-01-15T06:13:48;70.15;;;27.65;;
72404;SDS011;60395;52.020;113.548;2024-01-15T06:16:51;62.42;;;24.10;;
72404;SDS011;60395;52.020;113.548;2024-01-15T06:22:59;67.35;;;25.00;;
72404;SDS011;60395;52.020;113.548;2024-01-15T06:26:03;61.10;;;25.45;;
72404;SDS011;60395;52.020;113.548;2024-01-15T06:29:07;70.15;;;24.17;;
72404;SDS011;60395;52.020;113.548;2024-01-15T06:32:10;73.13;;;28.98;;
72404;SDS011;60395;52.020;113.548;2024-01-15T06:35:14;74.75;;;25.40;;
72404;SDS011;60395;52.020;113.548;2024-01-15T06:38:20;58.70;;;26.98;;
72404;SDS011;60395;52.020;113.548;2024-01-15T06:41:23;100.78;;;33.08;;
72404;SDS011;60395;52.020;113.548;2024-01-15T06:44:28;73.30;;;28.17;;
72404;SDS011;60395;52.020;113.548;2024-01-15T06:47:31;86.95;;;28.48;;
72404;SDS011;60395;52.020;113.548;2024-01-15T06:50:35;90.47;;;32.03;;
72404;SDS011;60395;52.020;113.548;2024-01-15T06:53:38;95.07;;;38.38;;
72404;SDS011;60395;52.020;113.548;2024-01-15T06:56:41;93.10;;;33.93;;
72404;SDS011;60395;52.020;113.548;2024-01-15T06:59:45;90.95;;;28.60;;
72404;SDS011;60395;52.020;113.548;2024-01-15T07:02:48;95.22;;;32.70;;
72404;SDS011;60395;52.020;113.548;2024-01-15T07:05:51;98.47;;;30.55;;
72404;SDS011;60395;52.020;113.548;2024-01-15T07:08:55;91.43;;;32.97;;
72404;SDS011;60395;52.020;113.548;2024-01-15T07:11:58;91.07;;;31.73;;
72404;SDS011;60395;52.020;113.548;2024-01-15T07:15:02;104.35;;;34.90;;
72404;SDS011;60395;52.020;113.548;2024-01-15T07:18:06;95.05;;;37.00;;
72404;SDS011;60395;52.020;113.548;2024-01-15T07:21:10;88.03;;;31.33;;
72404;SDS011;60395;52.020;113.548;2024-01-15T07:24:13;107.38;;;34.00;;
72404;SDS011;60395;52.020;113.548;2024-01-15T07:27:17;107.57;;;35.03;;
72404;SDS011;60395;52.020;113.548;2024-01-15T07:30:21;91.82;;;35.08;;
72404;SDS011;60395;52.020;113.548;2024-01-15T07:33:24;123.03;;;42.58;;
72404;SDS011;60395;52.020;113.548;2024-01-15T07:36:29;110.57;;;38.10;;
72404;SDS011;60395;52.020;113.548;2024-01-15T07:39:32;93.38;;;32.75;;
72404;SDS011;60395;52.020;113.548;2024-01-15T07:42:37;99.47;;;34.80;;
72404;SDS011;60395;52.020;113.548;2024-01-15T07:45:45;88.20;;;34.90;;
72404;SDS011;60395;52.020;113.548;2024-01-15T07:48:49;155.32;;;47.13;;
72404;SDS011;60395;52.020;113.548;2024-01-15T07:52:17;93.63;;;31.27;;
72404;SDS011;60395;52.020;113.548;2024-01-15T07:55:20;114.78;;;37.17;;
72404;SDS011;60395;52.020;113.548;2024-01-15T07:58:24;118.53;;;38.47;;
72404;SDS011;60395;52.020;113.548;2024-01-15T08:01:27;96.07;;;32.75;;
72404;SDS011;60395;52.020;113.548;2024-01-15T08:04:31;120.50;;;41.15;;
72404;SDS011;60395;52.020;113.548;2024-01-15T08:07:35;105.80;;;32.05;;
72404;SDS011;60395;52.020;113.548;2024-01-15T08:10:38;122.05;;;36.67;;
72404;SDS011;60395;52.020;113.548;2024-01-15T08:13:42;108.28;;;33.00;;
72404;SDS011;60395;52.020;113.548;2024-01-15T08:16:45;92.20;;;33.78;;
72404;SDS011;60395;52.020;113.548;2024-01-15T08:19:49;71.43;;;26.83;;
72404;SDS011;60395;52.020;113.548;2024-01-15T08:22:53;70.50;;;25.58;;
72404;SDS011;60395;52.020;113.548;2024-01-15T08:25:56;57.90;;;17.13;;
72404;SDS011;60395;52.020;113.548;2024-01-15T08:32:06;44.80;;;19.55;;
72404;SDS011;60395;52.020;113.548;2024-01-15T08:35:10;51.10;;;21.27;;
72404;SDS011;60395;52.020;113.548;2024-01-15T08:38:14;71.68;;;26.90;;
72404;SDS011;60395;52.020;113.548;2024-01-15T08:41:18;84.03;;;28.48;;
72404;SDS011;60395;52.020;113.548;2024-01-15T08:44:21;71.72;;;24.70;;
72404;SDS011;60395;52.020;113.548;2024-01-15T08:47:24;55.53;;;22.05;;
72404;SDS011;60395;52.020;113.548;2024-01-15T08:50:29;125.88;;;33.45;;
72404;SDS011;60395;52.020;113.548;2024-01-15T08:53:34;61.10;;;24.85;;
72404;SDS011;60395;52.020;113.548;2024-01-15T08:56:38;56.13;;;25.25;;
72404;SDS011;60395;52.020;113.548;2024-01-15T08:59:42;72.38;;;28.45;;
72404;SDS011;60395;52.020;113.548;2024-01-15T09:02:46;80.38;;;31.05;;
72404;SDS011;60395;52.020;113.548;2024-01-15T09:05:49;65.38;;;23.45;;
72404;SDS011;60395;52.020;113.548;2024-01-15T09:11:56;62.10;;;21.45;;
72404;SDS011;60395;52.020;113.548;2024-01-15T09:15:00;42.05;;;15.85;;
72404;SDS011;60395;52.020;113.548;2024-01-15T09:18:06;49.38;;;18.40;;
72404;SDS011;60395;52.020;113.548;2024-01-15T09:21:10;43.20;;;18.00;;
72404;SDS011;60395;52.020;113.548;2024-01-15T09:24:13;65.93;;;21.17;;
72404;SDS011;60395;52.020;113.548;2024-01-15T09:27:28;22.65;;;14.10;;
72404;SDS011;60395;52.020;113.548;2024-01-15T09:30:31;53.97;;;20.95;;
72404;SDS011;60395;52.020;113.548;2024-01-15T09:33:35;49.47;;;18.25;;
72404;SDS011;60395;52.020;113.548;2024-01-15T09:36:39;37.03;;;14.60;;
72404;SDS011;60395;52.020;113.548;2024-01-15T09:39:44;36.33;;;14.07;;
72404;SDS011;60395;52.020;113.548;2024-01-15T09:42:48;24.20;;;11.05;;
72404;SDS011;60395;52.020;113.548;2024-01-15T09:45:53;34.00;;;13.83;;
72404;SDS011;60395;52.020;113.548;2024-01-15T09:48:58;23.35;;;11.48;;
72404;SDS011;60395;52.020;113.548;2024-01-15T09:52:03;26.73;;;10.18;;
72404;SDS011;60395;52.020;113.548;2024-01-15T09:55:13;38.72;;;16.88;;
72404;SDS011;60395;52.020;113.548;2024-01-15T09:58:18;25.00;;;14.98;;
72404;SDS011;60395;52.020;113.548;2024-01-15T10:01:23;29.67;;;13.45;;
72404;SDS011;60395;52.020;113.548;2024-01-15T10:04:27;19.50;;;12.65;;
72404;SDS011;60395;52.020;113.548;2024-01-15T10:07:31;32.55;;;12.98;;
72404;SDS011;60395;52.020;113.548;2024-01-15T10:10:38;15.63;;;10.07;;
72404;SDS011;60395;52.020;113.548;2024-01-15T10:13:43;25.80;;;12.30;;
72404;SDS011;60395;52.020;113.548;2024-01-15T10:16:49;18.63;;;11.20;;
72404;SDS011;60395;52.020;113.548;2024-01-15T10:19:56;44.90;;;14.25;;
72404;SDS011;60395;52.020;113.548;2024-01-15T10:26:03;16.45;;;10.00;;
72404;SDS011;60395;52.020;113.548;2024-01-15T10:29:07;24.02;;;8.77;;
72404;SDS011;60395;52.020;113.548;2024-01-15T10:32:11;29.75;;;14.23;;
72404;SDS011;60395;52.020;113.548;2024-01-15T10:38:17;23.83;;;10.63;;
72404;SDS011;60395;52.020;113.548;2024-01-15T10:41:24;22.65;;;10.30;;
72404;SDS011;60395;52.020;113.548;2024-01-15T10:44:28;30.50;;;15.07;;
72404;SDS011;60395;52.020;113.548;2024-01-15T10:47:32;33.73;;;11.73;;
72404;SDS011;60395;52.020;113.548;2024-01-15T10:50:36;34.70;;;11.50;;
72404;SDS011;60395;52.020;113.548;2024-01-15T10:53:39;24.00;;;12.27;;
72404;SDS011;60395;52.020;113.548;2024-01-15T10:56:44;29.73;;;14.63;;
72404;SDS011;60395;52.020;113.548;2024-01-15T10:59:49;28.30;;;12.43;;
72404;SDS011;60395;52.020;113.548;2024-01-15T11:02:53;53.88;;;23.92;;
72404;SDS011;60395;52.020;113.548;2024-01-15T11:05:59;56.77;;;22.57;;
72404;SDS011;60395;52.020;113.548;2024-01-15T11:09:02;56.10;;;25.45;;
72404;SDS011;60395;52.020;113.548;2024-01-15T11:15:10;40.08;;;21.58;;
72404;SDS011;60395;52.020;113.548;2024-01-15T11:18:23;44.23;;;22.77;;
72404;SDS011;60395;52.020;113.548;2024-01-15T11:21:29;31.50;;;15.37;;
72404;SDS011;60395;52.020;113.548;2024-01-15T11:27:44;28.43;;;12.90;;
72404;SDS011;60395;52.020;113.548;2024-01-15T11:30:56;32.57;;;13.13;;
72404;SDS011;60395;52.020;113.548;2024-01-15T11:34:02;64.33;;;19.23;;
72404;SDS011;60395;52.020;113.548;2024-01-15T11:37:06;65.85;;;25.80;;
72404;SDS011;60395;52.020;113.548;2024-01-15T11:40:09;36.00;;;16.13;;
72404;SDS011;60395;52.020;113.548;2024-01-15T11:43:15;78.90;;;26.93;;
72404;SDS011;60395;52.020;113.548;2024-01-15T11:46:23;38.13;;;18.70;;
72404;SDS011;60395;52.020;113.548;2024-01-15T11:53:00;40.40;;;13.57;;
72404;SDS011;60395;52.020;113.548;2024-01-15T11:56:11;66.53;;;19.23;;
72404;SDS011;60395;52.020;113.548;2024-01-15T11:59:18;38.70;;;18.63;;
72404;SDS011;60395;52.020;113.548;2024-01-15T12:02:21;21.25;;;11.60;;
72404;SDS011;60395;52.020;113.548;2024-01-15T12:05:25;35.53;;;14.73;;
72404;SDS011;60395;52.020;113.548;2024-01-15T12:08:29;16.77;;;9.88;;
72404;SDS011;60395;52.020;113.548;2024-01-15T12:11:33;17.13;;;9.38;;
72404;SDS011;60395;52.020;113.548;2024-01-15T12:14:39;14.83;;;9.47;;
72404;SDS011;60395;52.020;113.548;2024-01-15T12:17:43;26.50;;;9.53;;
72404;SDS011;60395;52.020;113.548;2024-01-15T12:20:48;24.00;;;11.37;;
72404;SDS011;60395;52.020;113.548;2024-01-15T12:23:52;23.27;;;12.25;;
72404;SDS011;60395;52.020;113.548;2024-01-15T12:26:57;39.03;;;19.50;;
72404;SDS011;60395;52.020;113.548;2024-01-15T12:30:00;47.95;;;18.92;;
72404;SDS011;60395;52.020;113.548;2024-01-15T12:33:04;40.85;;;20.90;;
72404;SDS011;60395;52.020;113.548;2024-01-15T12:36:08;53.47;;;25.80;;
72404;SDS011;60395;52.020;113.548;2024-01-15T12:39:12;45.58;;;15.77;;
72404;SDS011;60395;52.020;113.548;2024-01-15T12:42:16;54.03;;;19.88;;
72404;SDS011;60395;52.020;113.548;2024-01-15T12:45:20;62.27;;;17.10;;
72404;SDS011;60395;52.020;113.548;2024-01-15T12:48:23;18.30;;;11.32;;
72404;SDS011;60395;52.020;113.548;2024-01-15T12:51:27;57.78;;;19.83;;
72404;SDS011;60395;52.020;113.548;2024-01-15T12:54:30;48.15;;;19.05;;
72404;SDS011;60395;52.020;113.548;2024-01-15T12:57:34;60.63;;;18.88;;
72404;SDS011;60395;52.020;113.548;2024-01-15T13:00:38;37.47;;;16.87;;
72404;SDS011;60395;52.020;113.548;2024-01-15T13:06:45;63.90;;;25.17;;
72404;SDS011;60395;52.020;113.548;2024-01-15T13:09:49;59.08;;;22.77;;
72404;SDS011;60395;52.020;113.548;2024-01-15T13:12:56;109.87;;;38.07;;
72404;SDS011;60395;52.020;113.548;2024-01-15T13:16:00;33.63;;;20.45;;
72404;SDS011;60395;52.020;113.548;2024-01-15T13:19:03;46.47;;;23.65;;
72404;SDS011;60395;52.020;113.548;2024-01-15T13:22:07;49.78;;;21.50;;
72404;SDS011;60395;52.020;113.548;2024-01-15T13:25:11;103.07;;;31.73;;
72404;SDS011;60395;52.020;113.548;2024-01-15T13:31:18;114.57;;;36.57;;
72404;SDS011;60395;52.020;113.548;2024-01-15T13:34:23;56.17;;;19.47;;
72404;SDS011;60395;52.020;113.548;2024-01-15T13:37:27;48.15;;;24.27;;
72404;SDS011;60395;52.020;113.548;2024-01-15T13:40:30;117.43;;;30.83;;
72404;SDS011;60395;52.020;113.548;2024-01-15T13:43:33;56.00;;;22.08;;
72404;SDS011;60395;52.020;113.548;2024-01-15T13:46:38;48.03;;;23.47;;
72404;SDS011;60395;52.020;113.548;2024-01-15T13:49:42;44.75;;;16.45;;
72404;SDS011;60395;52.020;113.548;2024-01-15T13:55:49;55.97;;;24.23;;
72404;SDS011;60395;52.020;113.548;2024-01-15T13:58:52;31.38;;;17.77;;
72404;SDS011;60395;52.020;113.548;2024-01-15T14:01:57;31.93;;;13.60;;
72404;SDS011;60395;52.020;113.548;2024-01-15T14:05:00;43.22;;;17.33;;
72404;SDS011;60395;52.020;113.548;2024-01-15T14:08:05;26.90;;;9.47;;
72404;SDS011;60395;52.020;113.548;2024-01-15T14:11:08;23.07;;;12.33;;
72404;SDS011;60395;52.020;113.548;2024-01-15T14:14:13;36.23;;;12.10;;
72404;SDS011;60395;52.020;113.548;2024-01-15T14:17:17;33.77;;;15.47;;
72404;SDS011;60395;52.020;113.548;2024-01-15T14:20:20;17.33;;;9.13;;
72404;SDS011;60395;52.020;113.548;2024-01-15T14:23:24;17.98;;;13.30;;
72404;SDS011;60395;52.020;113.548;2024-01-15T14:26:28;22.88;;;10.35;;
72404;SDS011;60395;52.020;113.548;2024-01-15T14:29:31;38.03;;;16.77;;
72404;SDS011;60395;52.020;113.548;2024-01-15T14:32:35;72.53;;;21.83;;
72404;SDS011;60395;52.020;113.548;2024-01-15T14:35:39;30.10;;;13.85;;
72404;SDS011;60395;52.020;113.548;2024-01-15T14:38:45;31.00;;;11.87;;
72404;SDS011;60395;52.020;113.548;2024-01-15T14:41:48;30.50;;;16.13;;
72404;SDS011;60395;52.020;113.548;2024-01-15T14:44:52;30.05;;;15.02;;
72404;SDS011;60395;52.020;113.548;2024-01-15T14:47:59;42.72;;;17.20;;
72404;SDS011;60395;52.020;113.548;2024-01-15T14:51:03;31.43;;;14.13;;
72404;SDS011;60395;52.020;113.548;2024-01-15T14:54:08;34.37;;;16.13;;
72404;SDS011;60395;52.020;113.548;2024-01-15T14:57:13;57.83;;;24.13;;
72404;SDS011;60395;52.020;113.548;2024-01-15T15:00:17;42.07;;;17.43;;
72404;SDS011;60395;52.020;113.548;2024-01-15T15:03:21;60.10;;;20.27;;
72404;SDS011;60395;52.020;113.548;2024-01-15T15:06:25;40.53;;;13.50;;
72404;SDS011;60395;52.020;113.548;2024-01-15T15:09:31;26.80;;;13.03;;
72404;SDS011;60395;52.020;113.548;2024-01-15T15:12:34;17.52;;;8.48;;
72404;SDS011;60395;52.020;113.548;2024-01-15T15:15:38;24.23;;;11.60;;
72404;SDS011;60395;52.020;113.548;2024-01-15T15:18:42;50.42;;;18.83;;
72404;SDS011;60395;52.020;113.548;2024-01-15T15:21:46;37.10;;;16.30;;
72404;SDS011;60395;52.020;113.548;2024-01-15T15:24:51;79.40;;;29.20;;
72404;SDS011;60395;52.020;113.548;2024-01-15T15:27:55;28.13;;;14.10;;
72404;SDS011;60395;52.020;113.548;2024-01-15T15:34:02;62.00;;;19.97;;
72404;SDS011;60395;52.020;113.548;2024-01-15T15:40:12;43.53;;;23.27;;
72404;SDS011;60395;52.020;113.548;2024-01-15T15:43:15;51.85;;;21.45;;
72404;SDS011;60395;52.020;113.548;2024-01-15T15:46:19;37.42;;;18.15;;
72404;SDS011;60395;52.020;113.548;2024-01-15T15:49:23;33.93;;;18.00;;
72404;SDS011;60395;52.020;113.548;2024-01-15T15:52:27;36.30;;;20.13;;
72404;SDS011;60395;52.020;113.548;2024-01-15T15:55:30;26.15;;;15.73;;
72404;SDS011;60395;52.020;113.548;2024-01-15T15:58:34;35.03;;;16.10;;
72404;SDS011;60395;52.020;113.548;2024-01-15T16:01:37;23.23;;;11.52;;
72404;SDS011;60395;52.020;113.548;2024-01-15T16:04:41;20.30;;;13.75;;
72404;SDS011;60395;52.020;113.548;2024-01-15T16:07:45;36.60;;;17.13;;
72404;SDS011;60395;52.020;113.548;2024-01-15T16:10:48;26.15;;;14.38;;
72404;SDS011;60395;52.020;113.548;2024-01-15T16:13:54;45.90;;;12.83;;
72404;SDS011;60395;52.020;113.548;2024-01-15T16:16:58;27.67;;;13.13;;
72404;SDS011;60395;52.020;113.548;2024-01-15T16:20:22;20.50;;;10.57;;
72404;SDS011;60395;52.020;113.548;2024-01-15T16:23:46;27.15;;;14.07;;
72404;SDS011;60395;52.020;113.548;2024-01-15T16:27:09;61.50;;;23.60;;
72404;SDS011;60395;52.020;113.548;2024-01-15T16:30:15;56.07;;;25.50;;
72404;SDS011;60395;52.020;113.548;2024-01-15T16:33:33;36.43;;;17.87;;
72404;SDS011;60395;52.020;113.548;2024-01-15T16:36:38;53.70;;;19.13;;
72404;SDS011;60395;52.020;113.548;2024-01-15T16:42:45;68.40;;;24.83;;
72404;SDS011;60395;52.020;113.548;2024-01-15T16:45:49;41.37;;;13.70;;
72404;SDS011;60395;52.020;113.548;2024-01-15T16:48:53;48.38;;;22.05;;
72404;SDS011;60395;52.020;113.548;2024-01-15T16:51:56;33.05;;;14.57;;
72404;SDS011;60395;52.020;113.548;2024-01-15T16:55:00;39.40;;;13.48;;
72404;SDS011;60395;52.020;113.548;2024-01-15T16:58:03;18.40;;;10.45;;
72404;SDS011;60395;52.020;113.548;2024-01-15T17:01:07;22.65;;;12.00;;
72404;SDS011;60395;52.020;113.548;2024-01-15T17:04:10;42.60;;;14.82;;
72404;SDS011;60395;52.020;113.548;2024-01-15T17:10:17;26.50;;;12.80;;
72404;SDS011;60395;52.020;113.548;2024-01-15T17:13:21;51.22;;;15.20;;
72404;SDS011;60395;52.020;113.548;2024-01-15T17:16:24;21.33;;;12.10;;
72404;SDS011;60395;52.020;113.548;2024-01-15T17:22:31;22.73;;;11.40;;
72404;SDS011;60395;52.020;113.548;2024-01-15T17:25:34;22.67;;;11.38;;
72404;SDS011;60395;52.020;113.548;2024-01-15T17:28:37;24.88;;;10.68;;
72404;SDS011;60395;52.020;113.548;2024-01-15T17:31:41;23.63;;;8.88;;
72404;SDS011;60395;52.020;113.548;2024-01-15T17:34:44;20.08;;;8.20;;
72404;SDS011;60395;52.020;113.548;2024-01-15T17:37:49;23.80;;;6.87;;
72404;SDS011;60395;52.020;113.548;2024-01-15T17:40:52;31.50;;;8.65;;
72404;SDS011;60395;52.020;113.548;2024-01-15T17:43:55;9.40;;;4.85;;
72404;SDS011;60395;52.020;113.548;2024-01-15T17:46:59;14.75;;;6.72;;
72404;SDS011;60395;52.020;113.548;2024-01-15T17:50:03;9.20;;;5.93;;
72404;SDS011;60395;52.020;113.548;2024-01-15T17:59:14;17.57;;;7.60;;
72404;SDS011;60395;52.020;113.548;2024-01-15T18:05:21;7.80;;;4.80;;
72404;SDS011;60395;52.020;113.548;2024-01-15T18:11:28;17.13;;;10.67;;
72404;SDS011;60395;52.020;113.548;2024-01-15T18:14:33;38.70;;;15.63;;
72404;SDS011;60395;52.020;113.548;2024-01-15T18:17:37;40.63;;;19.70;;
72404;SDS011;60395;52.020;113.548;2024-01-15T18:20:40;27.15;;;12.63;;
72404;SDS011;60395;52.020;113.548;2024-01-15T18:23:45;19.03;;;10.50;;
72404;SDS011;60395;52.020;113.548;2024-01-15T18:26:50;32.95;;;21.77;;
72404;SDS011;60395;52.020;113.548;2024-01-15T18:29:56;66.77;;;17.47;;
72404;SDS011;60395;52.020;113.548;2024-01-15T18:33:00;29.02;;;11.80;;
72404;SDS011;60395;52.020;113.548;2024-01-15T18:36:04;28.33;;;11.95;;
72404;SDS011;60395;52.020;113.548;2024-01-15T18:39:09;27.60;;;11.53;;
72404;SDS011;60395;52.020;113.548;2024-01-15T18:42:12;53.63;;;29.77;;
72404;SDS011;60395;52.020;113.548;2024-01-15T18:45:16;53.70;;;27.00;;
72404;SDS011;60395;52.020;113.548;2024-01-15T18:48:20;58.30;;;29.63;;
72404;SDS011;60395;52.020;113.548;2024-01-15T18:51:23;51.15;;;27.42;;
72404;SDS011;60395;52.020;113.548;2024-01-15T18:54:27;130.25;;;43.42;;
72404;SDS011;60395;52.020;113.548;2024-01-15T18:57:30;41.65;;;20.65;;
72404;SDS011;60395;52.020;113.548;2024-01-15T19:00:33;76.95;;;28.83;;
72404;SDS011;60395;52.020;113.548;2024-01-15T19:03:37;26.40;;;13.60;;
72404;SDS011;60395;52.020;113.548;2024-01-15T19:09:46;54.90;;;21.07;;
72404;SDS011;60395;52.020;113.548;2024-01-15T19:12:50;54.50;;;24.77;;
72404;SDS011;60395;52.020;113.548;2024-01-15T19:15:53;83.65;;;31.00;;
72404;SDS011;60395;52.020;113.548;2024-01-15T19:18:57;51.47;;;25.45;;
72404;SDS011;60395;52.020;113.548;2024-01-15T19:22:00;80.10;;;30.70;;
72404;SDS011;60395;52.020;113.548;2024-01-15T19:25:04;51.63;;;26.13;;
72404;SDS011;60395;52.020;113.548;2024-01-15T19:28:08;23.17;;;12.77;;
72404;SDS011;60395;52.020;113.548;2024-01-15T19:31:11;96.90;;;30.23;;
72404;SDS011;60395;52.020;113.548;2024-01-15T19:34:15;51.80;;;23.10;;